sensor_id;sensor_type;location;lat;lon;timestamp;pressure;altitude;pressure_sealevel;temperature;humidity
25759;BME280;13604;52.496;13.456;2023-11-22T00:02:04;102078.47;;;-1.65;100.00
25759;BME280;13604;52.496;13.456;2023-11-22T00:04:29;102071.16;;;-1.62;100.00
25759;BME280;13604;52.496;13.456;2023-11-22T00:06:55;102080.28;;;-1.57;100.00
25759;BME280;13604;52.496;13.456;2023-11-22T00:09:20;102058.03;;;-1.65;100.00
25759;BME280;13604;52.496;13.456;2023-11-22T00:11:48;102093.16;;;-1.41;100.00
25759;BME280;13604;52.496;13.456;2023-11-22T00:14:13;102085.31;;;-1.43;100.00
25759;BME280;13604;52.496;13.456;2023-11-22T00:16:38;102068.56;;;-1.48;100.00
25759;BME280;13604;52.496;13.456;2023-11-22T00:19:05;102099.13;;;-1.26;100.00
25759;BME280;13604;52.496;13.456;2023-11-22T00:21:31;102078.00;;;-1.40;100.00
25759;BME280;13604;52.496;13.456;2023-11-22T00:23:56;102081.59;;;-1.31;100.00
25759;BME280;13604;52.496;13.456;2023-11-22T00:26:22;102117.84;;;-1.12;100.00
25759;BME280;13604;52.496;13.456;2023-11-22T00:28:47;102127.66;;;-1.07;100.00
25759;BME280;13604;52.496;13.456;2023-11-22T00:31:14;102127.28;;;-1.03;100.00
25759;BME280;13604;52.496;13.456;2023-11-22T00:33:39;102136.41;;;-1.05;100.00
25759;BME280;13604;52.496;13.456;2023-11-22T00:36:05;102109.84;;;-1.22;100.00
25759;BME280;13604;52.496;13.456;2023-11-22T00:38:33;102134.97;;;-1.03;100.00
25759;BME280;13604;52.496;13.456;2023-11-22T00:41:01;102108.91;;;-1.15;100.00
25759;BME280;13604;52.496;13.456;2023-11-22T00:43:27;102136.22;;;-1.00;100.00
25759;BME280;13604;52.496;13.456;2023-11-22T00:45:52;102139.50;;;-1.01;100.00
25759;BME280;13604;52.496;13.456;2023-11-22T00:48:17;102136.28;;;-1.07;100.00
25759;BME280;13604;52.496;13.456;2023-11-22T00:50:43;102134.13;;;-1.18;100.00
25759;BME280;13604;52.496;13.456;2023-11-22T00:53:08;102145.03;;;-1.12;100.00
25759;BME280;13604;52.496;13.456;2023-11-22T00:55:34;102148.34;;;-1.13;100.00
25759;BME280;13604;52.496;13.456;2023-11-22T00:57:59;102151.09;;;-1.12;100.00
25759;BME280;13604;52.496;13.456;2023-11-22T01:00:29;102132.81;;;-1.15;100.00
25759;BME280;13604;52.496;13.456;2023-11-22T01:02:54;102133.78;;;-1.21;100.00
25759;BME280;13604;52.496;13.456;2023-11-22T01:05:19;102135.56;;;-1.20;100.00
25759;BME280;13604;52.496;13.456;2023-11-22T01:07:45;102160.72;;;-1.09;100.00
25759;BME280;13604;52.496;13.456;2023-11-22T01:10:10;102160.41;;;-1.19;100.00
25759;BME280;13604;52.496;13.456;2023-11-22T01:12:36;102122.59;;;-1.52;100.00
25759;BME280;13604;52.496;13.456;2023-11-22T01:15:01;102166.53;;;-1.40;100.00
25759;BME280;13604;52.496;13.456;2023-11-22T01:17:26;102131.97;;;-1.74;100.00
25759;BME280;13604;52.496;13.456;2023-11-22T01:19:52;102165.50;;;-1.71;100.00
25759;BME280;13604;52.496;13.456;2023-11-22T01:22:17;102160.81;;;-1.90;100.00
25759;BME280;13604;52.496;13.456;2023-11-22T01:24:42;102154.63;;;-1.99;100.00
25759;BME280;13604;52.496;13.456;2023-11-22T01:27:08;102173.03;;;-2.01;100.00
25759;BME280;13604;52.496;13.456;2023-11-22T01:29:33;102159.56;;;-2.08;100.00
25759;BME280;13604;52.496;13.456;2023-11-22T01:31:59;102171.97;;;-2.18;100.00
25759;BME280;13604;52.496;13.456;2023-11-22T01:34:25;102163.75;;;-2.23;100.00
25759;BME280;13604;52.496;13.456;2023-11-22T01:36:50;102159.75;;;-2.35;100.00
25759;BME280;13604;52.496;13.456;2023-11-22T01:39:15;102164.50;;;-2.38;100.00
25759;BME280;13604;52.496;13.456;2023-11-22T01:41:44;102160.84;;;-2.47;100.00
25759;BME280;13604;52.496;13.456;2023-11-22T01:44:09;102159.03;;;-2.48;100.00
25759;BME280;13604;52.496;13.456;2023-11-22T01:46:35;102163.94;;;-2.50;100.00
25759;BME280;13604;52.496;13.456;2023-11-22T01:49:00;102153.00;;;-2.56;100.00
25759;BME280;13604;52.496;13.456;2023-11-22T01:51:26;102169.03;;;-2.43;100.00
25759;BME280;13604;52.496;13.456;2023-11-22T01:53:53;102161.91;;;-2.45;100.00
25759;BME280;13604;52.496;13.456;2023-11-22T01:56:20;102165.75;;;-2.49;100.00
25759;BME280;13604;52.496;13.456;2023-11-22T01:58:46;102187.63;;;-2.51;100.00
25759;BME280;13604;52.496;13.456;2023-11-22T02:01:12;102158.44;;;-2.67;100.00
25759;BME280;13604;52.496;13.456;2023-11-22T02:03:38;102185.06;;;-2.51;100.00
25759;BME280;13604;52.496;13.456;2023-11-22T02:06:05;102181.59;;;-2.59;100.00
25759;BME280;13604;52.496;13.456;2023-11-22T02:08:30;102183.56;;;-2.70;100.00
25759;BME280;13604;52.496;13.456;2023-11-22T02:11:00;102187.63;;;-2.58;99.28
25759;BME280;13604;52.496;13.456;2023-11-22T02:13:25;102195.28;;;-2.58;97.22
25759;BME280;13604;52.496;13.456;2023-11-22T02:15:51;102193.63;;;-2.57;95.14
25759;BME280;13604;52.496;13.456;2023-11-22T02:18:21;102192.16;;;-2.55;93.93
25759;BME280;13604;52.496;13.456;2023-11-22T02:20:46;102197.78;;;-2.65;92.98
25759;BME280;13604;52.496;13.456;2023-11-22T02:23:12;102187.97;;;-2.69;93.11
25759;BME280;13604;52.496;13.456;2023-11-22T02:25:37;102202.72;;;-2.67;93.02
25759;BME280;13604;52.496;13.456;2023-11-22T02:28:03;102173.91;;;-2.80;93.35
25759;BME280;13604;52.496;13.456;2023-11-22T02:30:28;102172.63;;;-2.91;93.78
25759;BME280;13604;52.496;13.456;2023-11-22T02:32:53;102207.78;;;-2.81;93.51
25759;BME280;13604;52.496;13.456;2023-11-22T02:35:19;102208.69;;;-2.81;93.37
25759;BME280;13604;52.496;13.456;2023-11-22T02:37:44;102198.81;;;-2.92;93.29
25759;BME280;13604;52.496;13.456;2023-11-22T02:40:20;102205.41;;;-2.87;93.08
25759;BME280;13604;52.496;13.456;2023-11-22T02:42:47;102205.19;;;-2.88;93.55
25759;BME280;13604;52.496;13.456;2023-11-22T02:45:13;102206.47;;;-2.99;93.82
25759;BME280;13604;52.496;13.456;2023-11-22T02:47:39;102227.97;;;-2.90;93.81
25759;BME280;13604;52.496;13.456;2023-11-22T02:50:05;102235.78;;;-2.88;93.02
25759;BME280;13604;52.496;13.456;2023-11-22T02:52:31;102241.06;;;-2.94;92.91
25759;BME280;13604;52.496;13.456;2023-11-22T02:54:56;102231.78;;;-2.93;92.19
25759;BME280;13604;52.496;13.456;2023-11-22T02:57:21;102250.53;;;-2.93;92.77
25759;BME280;13604;52.496;13.456;2023-11-22T02:59:47;102255.63;;;-2.93;92.33
25759;BME280;13604;52.496;13.456;2023-11-22T03:02:12;102261.47;;;-2.94;92.08
25759;BME280;13604;52.496;13.456;2023-11-22T03:04:37;102235.69;;;-3.17;92.22
25759;BME280;13604;52.496;13.456;2023-11-22T03:07:03;102257.00;;;-3.09;92.58
25759;BME280;13604;52.496;13.456;2023-11-22T03:09:29;102271.00;;;-3.13;93.09
25759;BME280;13604;52.496;13.456;2023-11-22T03:11:54;102292.56;;;-3.04;93.67
25759;BME280;13604;52.496;13.456;2023-11-22T03:14:20;102260.41;;;-3.23;94.41
25759;BME280;13604;52.496;13.456;2023-11-22T03:16:47;102296.66;;;-3.19;95.33
25759;BME280;13604;52.496;13.456;2023-11-22T03:19:13;102297.72;;;-3.24;96.58
25759;BME280;13604;52.496;13.456;2023-11-22T03:21:39;102300.47;;;-3.22;97.56
25759;BME280;13604;52.496;13.456;2023-11-22T03:24:09;102291.28;;;-3.35;97.75
25759;BME280;13604;52.496;13.456;2023-11-22T03:26:34;102295.13;;;-3.31;98.72
25759;BME280;13604;52.496;13.456;2023-11-22T03:29:00;102301.28;;;-3.36;99.20
25759;BME280;13604;52.496;13.456;2023-11-22T03:31:25;102295.03;;;-3.45;100.00
25759;BME280;13604;52.496;13.456;2023-11-22T03:33:51;102316.13;;;-3.46;100.00
25759;BME280;13604;52.496;13.456;2023-11-22T03:36:16;102314.63;;;-3.52;100.00
25759;BME280;13604;52.496;13.456;2023-11-22T03:38:41;102317.31;;;-3.57;100.00
25759;BME280;13604;52.496;13.456;2023-11-22T03:41:06;102319.94;;;-3.50;100.00
25759;BME280;13604;52.496;13.456;2023-11-22T03:43:32;102326.63;;;-3.51;100.00
25759;BME280;13604;52.496;13.456;2023-11-22T03:45:57;102337.56;;;-3.52;100.00
25759;BME280;13604;52.496;13.456;2023-11-22T03:48:22;102301.53;;;-3.75;100.00
25759;BME280;13604;52.496;13.456;2023-11-22T03:50:49;102300.28;;;-3.71;100.00
25759;BME280;13604;52.496;13.456;2023-11-22T03:53:14;102289.00;;;-3.73;100.00
25759;BME280;13604;52.496;13.456;2023-11-22T03:55:39;102302.19;;;-3.63;100.00
25759;BME280;13604;52.496;13.456;2023-11-22T03:58:05;102293.47;;;-3.58;100.00
25759;BME280;13604;52.496;13.456;2023-11-22T04:00:31;102306.25;;;-3.51;100.00
25759;BME280;13604;52.496;13.456;2023-11-22T04:02:57;102303.72;;;-3.51;100.00
25759;BME280;13604;52.496;13.456;2023-11-22T04:05:25;102285.06;;;-3.64;100.00
25759;BME280;13604;52.496;13.456;2023-11-22T04:07:50;102311.34;;;-3.51;100.00
25759;BME280;13604;52.496;13.456;2023-11-22T04:10:16;102304.56;;;-3.57;100.00
25759;BME280;13604;52.496;13.456;2023-11-22T04:12:42;102331.38;;;-3.54;100.00
25759;BME280;13604;52.496;13.456;2023-11-22T04:15:08;102318.13;;;-3.71;100.00
25759;BME280;13604;52.496;13.456;2023-11-22T04:17:36;102329.81;;;-3.66;100.00
25759;BME280;13604;52.496;13.456;2023-11-22T04:20:06;102349.13;;;-3.61;100.00
25759;BME280;13604;52.496;13.456;2023-11-22T04:22:36;102351.22;;;-3.71;100.00
25759;BME280;13604;52.496;13.456;2023-11-22T04:25:01;102357.22;;;-3.71;100.00
25759;BME280;13604;52.496;13.456;2023-11-22T04:27:27;102355.22;;;-3.73;100.00
25759;BME280;13604;52.496;13.456;2023-11-22T04:29:52;102318.72;;;-3.86;100.00
25759;BME280;13604;52.496;13.456;2023-11-22T04:32:17;102324.31;;;-3.89;100.00
25759;BME280;13604;52.496;13.456;2023-11-22T04:34:43;102346.44;;;-3.75;100.00
25759;BME280;13604;52.496;13.456;2023-11-22T04:37:08;102335.59;;;-3.87;100.00
25759;BME280;13604;52.496;13.456;2023-11-22T04:39:33;102336.56;;;-3.86;100.00
25759;BME280;13604;52.496;13.456;2023-11-22T04:41:59;102360.22;;;-3.80;100.00
25759;BME280;13604;52.496;13.456;2023-11-22T04:44:24;102354.72;;;-3.83;100.00
25759;BME280;13604;52.496;13.456;2023-11-22T04:46:49;102343.00;;;-3.96;100.00
25759;BME280;13604;52.496;13.456;2023-11-22T04:49:15;102352.06;;;-3.98;100.00
25759;BME280;13604;52.496;13.456;2023-11-22T04:51:40;102369.63;;;-3.86;100.00
25759;BME280;13604;52.496;13.456;2023-11-22T04:54:08;102373.19;;;-3.92;100.00
25759;BME280;13604;52.496;13.456;2023-11-22T04:56:33;102389.25;;;-3.85;100.00
25759;BME280;13604;52.496;13.456;2023-11-22T04:58:58;102389.72;;;-3.95;100.00
25759;BME280;13604;52.496;13.456;2023-11-22T05:01:24;102402.13;;;-3.91;100.00
25759;BME280;13604;52.496;13.456;2023-11-22T05:03:50;102404.00;;;-4.03;100.00
25759;BME280;13604;52.496;13.456;2023-11-22T05:06:15;102419.16;;;-3.97;100.00
25759;BME280;13604;52.496;13.456;2023-11-22T05:08:41;102415.91;;;-3.96;100.00
25759;BME280;13604;52.496;13.456;2023-11-22T05:11:07;102401.38;;;-4.10;100.00
25759;BME280;13604;52.496;13.456;2023-11-22T05:13:33;102426.19;;;-4.02;100.00
25759;BME280;13604;52.496;13.456;2023-11-22T05:15:58;102422.13;;;-4.07;100.00
25759;BME280;13604;52.496;13.456;2023-11-22T05:18:23;102426.50;;;-4.06;100.00
25759;BME280;13604;52.496;13.456;2023-11-22T05:20:48;102429.56;;;-4.09;100.00
25759;BME280;13604;52.496;13.456;2023-11-22T05:23:14;102427.00;;;-4.09;100.00
25759;BME280;13604;52.496;13.456;2023-11-22T05:25:39;102420.91;;;-4.16;100.00
25759;BME280;13604;52.496;13.456;2023-11-22T05:28:04;102416.09;;;-4.28;100.00
25759;BME280;13604;52.496;13.456;2023-11-22T05:30:30;102418.31;;;-4.23;100.00
25759;BME280;13604;52.496;13.456;2023-11-22T05:32:55;102434.88;;;-4.20;100.00
25759;BME280;13604;52.496;13.456;2023-11-22T05:35:21;102445.03;;;-4.07;100.00
25759;BME280;13604;52.496;13.456;2023-11-22T05:37:47;102421.25;;;-4.20;100.00
25759;BME280;13604;52.496;13.456;2023-11-22T05:40:12;102449.91;;;-4.09;100.00
25759;BME280;13604;52.496;13.456;2023-11-22T05:42:40;102448.81;;;-4.11;100.00
25759;BME280;13604;52.496;13.456;2023-11-22T05:45:06;102450.63;;;-4.10;100.00
25759;BME280;13604;52.496;13.456;2023-11-22T05:47:32;102464.28;;;-4.09;100.00
25759;BME280;13604;52.496;13.456;2023-11-22T05:49:58;102457.28;;;-4.17;100.00
25759;BME280;13604;52.496;13.456;2023-11-22T05:52:23;102468.44;;;-4.10;100.00
25759;BME280;13604;52.496;13.456;2023-11-22T05:54:49;102448.19;;;-4.15;100.00
25759;BME280;13604;52.496;13.456;2023-11-22T05:57:14;102454.31;;;-4.08;100.00
25759;BME280;13604;52.496;13.456;2023-11-22T05:59:40;102453.69;;;-4.12;100.00
25759;BME280;13604;52.496;13.456;2023-11-22T06:02:05;102428.81;;;-4.28;100.00
25759;BME280;13604;52.496;13.456;2023-11-22T06:04:30;102462.56;;;-4.16;100.00
25759;BME280;13604;52.496;13.456;2023-11-22T06:06:56;102463.06;;;-4.18;100.00
25759;BME280;13604;52.496;13.456;2023-11-22T06:09:21;102460.13;;;-4.21;100.00
25759;BME280;13604;52.496;13.456;2023-11-22T06:11:48;102457.91;;;-4.26;100.00
25759;BME280;13604;52.496;13.456;2023-11-22T06:14:13;102453.72;;;-4.25;100.00
25759;BME280;13604;52.496;13.456;2023-11-22T06:16:39;102446.00;;;-4.32;100.00
25759;BME280;13604;52.496;13.456;2023-11-22T06:19:04;102473.16;;;-4.13;100.00
25759;BME280;13604;52.496;13.456;2023-11-22T06:21:30;102466.13;;;-4.21;100.00
25759;BME280;13604;52.496;13.456;2023-11-22T06:23:55;102422.09;;;-4.40;100.00
25759;BME280;13604;52.496;13.456;2023-11-22T06:26:23;102468.34;;;-4.17;100.00
25759;BME280;13604;52.496;13.456;2023-11-22T06:28:48;102472.34;;;-4.19;100.00
25759;BME280;13604;52.496;13.456;2023-11-22T06:31:14;102449.44;;;-4.32;100.00
25759;BME280;13604;52.496;13.456;2023-11-22T06:33:39;102475.28;;;-4.29;100.00
25759;BME280;13604;52.496;13.456;2023-11-22T06:36:05;102469.09;;;-4.31;100.00
25759;BME280;13604;52.496;13.456;2023-11-22T06:38:30;102467.97;;;-4.33;100.00
25759;BME280;13604;52.496;13.456;2023-11-22T06:40:56;102470.91;;;-4.43;100.00
25759;BME280;13604;52.496;13.456;2023-11-22T06:43:21;102501.22;;;-4.05;100.00
25759;BME280;13604;52.496;13.456;2023-11-22T06:45:47;102499.16;;;-4.08;100.00
25759;BME280;13604;52.496;13.456;2023-11-22T06:48:13;102518.91;;;-4.00;100.00
25759;BME280;13604;52.496;13.456;2023-11-22T06:50:38;102503.56;;;-4.07;100.00
25759;BME280;13604;52.496;13.456;2023-11-22T06:53:04;102504.56;;;-3.86;100.00
25759;BME280;13604;52.496;13.456;2023-11-22T06:55:29;102545.63;;;-3.71;100.00
25759;BME280;13604;52.496;13.456;2023-11-22T06:57:56;102553.13;;;-3.52;100.00
25759;BME280;13604;52.496;13.456;2023-11-22T07:00:21;102555.56;;;-3.46;100.00
25759;BME280;13604;52.496;13.456;2023-11-22T07:02:46;102557.53;;;-3.51;100.00
25759;BME280;13604;52.496;13.456;2023-11-22T07:05:13;102539.72;;;-3.64;100.00
25759;BME280;13604;52.496;13.456;2023-11-22T07:07:39;102561.44;;;-3.73;100.00
25759;BME280;13604;52.496;13.456;2023-11-22T07:10:04;102568.69;;;-3.76;100.00
25759;BME280;13604;52.496;13.456;2023-11-22T07:12:34;102572.94;;;-3.70;100.00
25759;BME280;13604;52.496;13.456;2023-11-22T07:15:02;102567.84;;;-3.70;100.00
25759;BME280;13604;52.496;13.456;2023-11-22T07:17:28;102561.66;;;-3.72;100.00
25759;BME280;13604;52.496;13.456;2023-11-22T07:19:54;102574.97;;;-3.67;100.00
25759;BME280;13604;52.496;13.456;2023-11-22T07:22:19;102549.84;;;-3.71;100.00
25759;BME280;13604;52.496;13.456;2023-11-22T07:24:47;102568.53;;;-3.58;100.00
25759;BME280;13604;52.496;13.456;2023-11-22T07:27:13;102571.75;;;-3.46;100.00
25759;BME280;13604;52.496;13.456;2023-11-22T07:29:43;102567.91;;;-3.49;100.00
25759;BME280;13604;52.496;13.456;2023-11-22T07:32:08;102569.22;;;-3.46;100.00
25759;BME280;13604;52.496;13.456;2023-11-22T07:34:34;102579.31;;;-3.40;100.00
25759;BME280;13604;52.496;13.456;2023-11-22T07:37:00;102559.22;;;-3.44;100.00
25759;BME280;13604;52.496;13.456;2023-11-22T07:39:25;102579.84;;;-3.23;100.00
25759;BME280;13604;52.496;13.456;2023-11-22T07:41:53;102583.59;;;-3.13;100.00
25759;BME280;13604;52.496;13.456;2023-11-22T07:44:20;102568.34;;;-3.06;100.00
25759;BME280;13604;52.496;13.456;2023-11-22T07:46:46;102587.19;;;-2.79;100.00
25759;BME280;13604;52.496;13.456;2023-11-22T07:49:11;102559.09;;;-2.86;100.00
25759;BME280;13604;52.496;13.456;2023-11-22T07:51:39;102572.94;;;-2.64;100.00
25759;BME280;13604;52.496;13.456;2023-11-22T07:54:04;102535.31;;;-2.72;100.00
25759;BME280;13604;52.496;13.456;2023-11-22T07:56:30;102551.78;;;-2.43;100.00
25759;BME280;13604;52.496;13.456;2023-11-22T07:58:57;102552.94;;;-1.99;100.00
25759;BME280;13604;52.496;13.456;2023-11-22T08:01:23;102552.03;;;-1.58;100.00
25759;BME280;13604;52.496;13.456;2023-11-22T08:03:48;102527.31;;;-1.08;99.27
25759;BME280;13604;52.496;13.456;2023-11-22T08:06:16;102532.16;;;-0.16;93.46
25759;BME280;13604;52.496;13.456;2023-11-22T08:08:41;102515.88;;;0.88;88.42
25759;BME280;13604;52.496;13.456;2023-11-22T08:11:07;102510.47;;;1.63;80.24
25759;BME280;13604;52.496;13.456;2023-11-22T08:13:43;102509.81;;;1.34;77.97
25759;BME280;13604;52.496;13.456;2023-11-22T08:16:10;102534.13;;;1.45;78.23
25759;BME280;13604;52.496;13.456;2023-11-22T08:18:35;102546.19;;;2.33;75.37
25759;BME280;13604;52.496;13.456;2023-11-22T08:21:01;102546.06;;;3.39;70.16
25759;BME280;13604;52.496;13.456;2023-11-22T08:23:26;102546.69;;;3.96;64.91
25759;BME280;13604;52.496;13.456;2023-11-22T08:25:55;102543.53;;;4.33;62.53
25759;BME280;13604;52.496;13.456;2023-11-22T08:28:22;102550.16;;;4.75;59.75
25759;BME280;13604;52.496;13.456;2023-11-22T08:30:47;102533.19;;;4.42;57.88
25759;BME280;13604;52.496;13.456;2023-11-22T08:33:12;102560.34;;;4.12;57.93
25759;BME280;13604;52.496;13.456;2023-11-22T08:35:38;102528.16;;;3.31;57.74
25759;BME280;13604;52.496;13.456;2023-11-22T08:38:04;102563.91;;;3.28;60.01
25759;BME280;13604;52.496;13.456;2023-11-22T08:40:33;102567.69;;;2.99;60.93
25759;BME280;13604;52.496;13.456;2023-11-22T08:43:02;102572.00;;;2.91;62.04
25759;BME280;13604;52.496;13.456;2023-11-22T08:45:27;102561.84;;;3.08;61.05
25759;BME280;13604;52.496;13.456;2023-11-22T08:47:54;102542.91;;;3.08;60.69
25759;BME280;13604;52.496;13.456;2023-11-22T08:50:19;102551.56;;;3.17;60.39
25759;BME280;13604;52.496;13.456;2023-11-22T08:52:45;102544.38;;;3.81;59.21
25759;BME280;13604;52.496;13.456;2023-11-22T08:55:10;102553.34;;;5.35;55.96
25759;BME280;13604;52.496;13.456;2023-11-22T08:57:39;102570.09;;;6.60;50.65
25759;BME280;13604;52.496;13.456;2023-11-22T09:00:06;102571.31;;;7.03;48.60
25759;BME280;13604;52.496;13.456;2023-11-22T09:02:35;102557.50;;;7.13;47.70
25759;BME280;13604;52.496;13.456;2023-11-22T09:05:01;102576.34;;;8.01;46.98
25759;BME280;13604;52.496;13.456;2023-11-22T09:07:28;102572.66;;;9.03;44.97
25759;BME280;13604;52.496;13.456;2023-11-22T09:09:54;102558.06;;;9.94;42.21
25759;BME280;13604;52.496;13.456;2023-11-22T09:12:19;102571.88;;;10.86;39.45
25759;BME280;13604;52.496;13.456;2023-11-22T09:14:46;102558.84;;;11.72;38.10
25759;BME280;13604;52.496;13.456;2023-11-22T09:19:38;102620.31;;;13.64;nan
25759;BME280;13604;52.496;13.456;2023-11-22T09:22:04;102566.31;;;14.24;nan
25759;BME280;13604;52.496;13.456;2023-11-22T09:24:31;102562.78;;;14.83;nan
25759;BME280;13604;52.496;13.456;2023-11-22T09:26:57;102529.47;;;14.06;nan
25759;BME280;13604;52.496;13.456;2023-11-22T09:29:22;102552.84;;;14.78;nan
25759;BME280;13604;52.496;13.456;2023-11-22T09:31:48;102543.53;;;15.47;nan
25759;BME280;13604;52.496;13.456;2023-11-22T09:34:14;102517.53;;;15.19;nan
25759;BME280;13604;52.496;13.456;2023-11-22T09:36:40;102534.44;;;15.90;nan
25759;BME280;13604;52.496;13.456;2023-11-22T09:43:59;102513.50;;;16.62;nan
25759;BME280;13604;52.496;13.456;2023-11-22T09:46:25;102526.56;;;16.42;nan
25759;BME280;13604;52.496;13.456;2023-11-22T09:48:52;102516.34;;;16.48;nan
25759;BME280;13604;52.496;13.456;2023-11-22T09:51:23;102509.03;;;17.34;nan
25759;BME280;13604;52.496;13.456;2023-11-22T09:54:04;102500.72;;;16.15;nan
25759;BME280;13604;52.496;13.456;2023-11-22T09:56:33;102506.31;;;15.54;nan
25759;BME280;13604;52.496;13.456;2023-11-22T09:59:00;102514.63;;;14.51;nan
25759;BME280;13604;52.496;13.456;2023-11-22T10:02:34;102533.03;;;15.63;26.97
25759;BME280;13604;52.496;13.456;2023-11-22T10:05:00;102544.06;;;16.24;26.67
25759;BME280;13604;52.496;13.456;2023-11-22T10:07:26;102535.44;;;16.98;25.94
25759;BME280;13604;52.496;13.456;2023-11-22T10:09:51;102531.81;;;17.53;25.43
25759;BME280;13604;52.496;13.456;2023-11-22T10:12:20;102558.97;;;18.53;25.30
25759;BME280;13604;52.496;13.456;2023-11-22T10:14:47;102551.78;;;19.38;24.17
25759;BME280;13604;52.496;13.456;2023-11-22T10:17:12;102558.72;;;19.11;23.09
25759;BME280;13604;52.496;13.456;2023-11-22T10:19:40;102532.59;;;18.53;24.42
25759;BME280;13604;52.496;13.456;2023-11-22T10:22:06;102532.25;;;16.86;24.58
25759;BME280;13604;52.496;13.456;2023-11-22T10:24:32;102539.56;;;17.70;24.89
25759;BME280;13604;52.496;13.456;2023-11-22T10:27:03;102539.69;;;18.33;24.40
25759;BME280;13604;52.496;13.456;2023-11-22T10:29:29;102558.34;;;18.37;24.10
25759;BME280;13604;52.496;13.456;2023-11-22T10:31:55;102565.34;;;18.37;23.99
25759;BME280;13604;52.496;13.456;2023-11-22T10:34:24;102560.25;;;18.63;24.24
25759;BME280;13604;52.496;13.456;2023-11-22T10:36:50;102549.94;;;17.08;25.29
25759;BME280;13604;52.496;13.456;2023-11-22T10:39:22;102564.53;;;16.13;24.75
25759;BME280;13604;52.496;13.456;2023-11-22T10:41:47;102571.34;;;15.27;25.53
25759;BME280;13604;52.496;13.456;2023-11-22T10:44:13;102564.59;;;15.16;25.95
25759;BME280;13604;52.496;13.456;2023-11-22T10:46:40;102544.41;;;15.15;26.10
25759;BME280;13604;52.496;13.456;2023-11-22T10:49:06;102562.41;;;16.06;26.33
25759;BME280;13604;52.496;13.456;2023-11-22T10:51:32;102561.34;;;17.08;25.26
25759;BME280;13604;52.496;13.456;2023-11-22T10:53:59;102560.16;;;16.84;24.35
25759;BME280;13604;52.496;13.456;2023-11-22T10:56:36;102560.59;;;17.48;24.71
25759;BME280;13604;52.496;13.456;2023-11-22T10:59:06;102565.59;;;17.62;23.65
25759;BME280;13604;52.496;13.456;2023-11-22T11:01:34;102558.34;;;17.58;23.78
25759;BME280;13604;52.496;13.456;2023-11-22T11:04:03;102565.75;;;18.46;23.38
25759;BME280;13604;52.496;13.456;2023-11-22T11:09:00;102567.84;;;18.97;nan
25759;BME280;13604;52.496;13.456;2023-11-22T11:11:29;102627.38;;;20.29;nan
25759;BME280;13604;52.496;13.456;2023-11-22T11:13:56;102566.31;;;19.97;nan
25759;BME280;13604;52.496;13.456;2023-11-22T11:16:22;102561.88;;;19.72;nan
25759;BME280;13604;52.496;13.456;2023-11-22T11:18:49;102530.88;;;20.18;nan
25759;BME280;13604;52.496;13.456;2023-11-22T11:21:15;102541.00;;;20.30;nan
25759;BME280;13604;52.496;13.456;2023-11-22T11:23:40;102533.88;;;20.54;nan
25759;BME280;13604;52.496;13.456;2023-11-22T11:26:14;102529.44;;;20.81;nan
25759;BME280;13604;52.496;13.456;2023-11-22T11:28:45;102522.16;;;19.46;nan
25759;BME280;13604;52.496;13.456;2023-11-22T11:31:12;102531.47;;;17.84;nan
25759;BME280;13604;52.496;13.456;2023-11-22T11:36:39;102511.00;;;14.96;nan
25759;BME280;13604;52.496;13.456;2023-11-22T11:39:06;102514.22;;;15.23;nan
25759;BME280;13604;52.496;13.456;2023-11-22T11:41:35;102496.44;;;15.17;nan
25759;BME280;13604;52.496;13.456;2023-11-22T11:44:02;102493.81;;;14.54;nan
25759;BME280;13604;52.496;13.456;2023-11-22T11:46:29;102502.91;;;16.42;nan
25759;BME280;13604;52.496;13.456;2023-11-22T11:48:55;102505.59;;;17.76;nan
25759;BME280;13604;52.496;13.456;2023-11-22T11:51:28;102482.78;;;17.76;nan
25759;BME280;13604;52.496;13.456;2023-11-22T11:53:54;102481.72;;;17.52;nan
25759;BME280;13604;52.496;13.456;2023-11-22T11:56:20;102474.78;;;17.54;nan
25759;BME280;13604;52.496;13.456;2023-11-22T11:58:48;102462.16;;;16.70;nan
25759;BME280;13604;52.496;13.456;2023-11-22T12:02:35;102464.88;;;13.34;27.27
25759;BME280;13604;52.496;13.456;2023-11-22T12:05:00;102457.59;;;12.86;27.91
25759;BME280;13604;52.496;13.456;2023-11-22T12:07:26;102439.78;;;13.22;28.49
25759;BME280;13604;52.496;13.456;2023-11-22T12:09:51;102449.59;;;12.98;28.52
25759;BME280;13604;52.496;13.456;2023-11-22T12:12:16;102438.84;;;12.12;29.52
25759;BME280;13604;52.496;13.456;2023-11-22T12:14:42;102430.22;;;12.00;31.25
25759;BME280;13604;52.496;13.456;2023-11-22T12:17:09;102430.50;;;11.52;31.12
25759;BME280;13604;52.496;13.456;2023-11-22T12:19:35;102425.94;;;10.86;31.40
25759;BME280;13604;52.496;13.456;2023-11-22T12:22:00;102421.25;;;10.94;32.02
25759;BME280;13604;52.496;13.456;2023-11-22T12:24:25;102415.34;;;12.12;31.19
25759;BME280;13604;52.496;13.456;2023-11-22T12:26:51;102406.38;;;11.82;30.02
25759;BME280;13604;52.496;13.456;2023-11-22T12:29:17;102377.44;;;11.78;30.03
25759;BME280;13604;52.496;13.456;2023-11-22T12:31:49;102389.44;;;12.02;29.91
25759;BME280;13604;52.496;13.456;2023-11-22T12:34:17;102395.97;;;11.18;30.55
25759;BME280;13604;52.496;13.456;2023-11-22T12:36:42;102396.72;;;10.78;31.91
25759;BME280;13604;52.496;13.456;2023-11-22T12:39:08;102381.81;;;10.52;32.51
25759;BME280;13604;52.496;13.456;2023-11-22T12:41:41;102390.81;;;10.32;31.98
25759;BME280;13604;52.496;13.456;2023-11-22T12:44:07;102396.00;;;9.85;32.51
25759;BME280;13604;52.496;13.456;2023-11-22T12:46:51;102390.69;;;9.83;33.08
25759;BME280;13604;52.496;13.456;2023-11-22T12:49:24;102429.63;;;10.41;32.96